Time;durP1;ratioP1;P1;durP2;ratioP2;P2;SDS_P1;SDS_P2;PMS_P1;PMS_P2;Temp;Humidity;BMP_temperature;BMP_pressure;BME280_temperature;BME280_humidity;BME280_pressure;Samples;Min_cycle;Max_cycle;Signal;HPM_P1;HPM_P2
2022/08/18 00:01:25;;;;;;;;;;;;;;;25.13;62.27;100374.41;4930175;29;19949;-83
2022/08/18 00:04:10;;;;;;;;;;;;;;;25.27;61.62;100367.81;4916612;29;19914;-84
2022/08/18 00:06:55;;;;;;;;;;;;;;;25.38;61.45;100365.63;4928756;29;20466;-82
2022/08/18 00:09:40;;;;;;;;;;;;;;;25.49;61.00;100364.25;4933504;29;19914;-83
2022/08/18 00:12:27;;;;;;;;;;;;;;;25.61;60.56;100378.78;4921147;29;19945;-83
2022/08/18 00:15:12;;;;;;;;;;;;;;;25.43;61.19;100377.09;4933525;29;19915;-83
2022/08/18 00:17:57;;;;;;;;;;;;;;;24.27;65.44;100383.19;4920160;29;19915;-82
2022/08/18 00:20:41;;;;;;;;;;;;;;;24.07;66.39;100376.66;4929486;29;19915;-82
2022/08/18 00:23:27;;;;;;;;;;;;;;;23.88;66.99;100375.25;4910895;29;19919;-81
2022/08/18 00:26:12;;;;;;;;;;;;;;;23.82;67.44;100365.78;4924791;29;19914;-82
2022/08/18 00:28:56;;;;;;;;;;;;;;;23.99;66.71;100364.03;4933251;29;19918;-84
2022/08/18 00:31:41;;;;;;;;;;;;;;;23.84;67.51;100362.63;4934210;29;19915;-82
2022/08/18 00:34:26;;;;;;;;;;;;;;;23.73;67.89;100357.19;4934487;29;19915;-82
2022/08/18 00:37:11;;;;;;;;;;;;;;;23.84;67.77;100346.75;4933119;29;19915;-82
2022/08/18 00:39:55;;;;;;;;;;;;;;;23.97;66.89;100343.44;4960524;23;19923;-77
2022/08/18 00:42:46;;;;;;;;;;;;;;;24.04;66.32;100343.34;4962935;28;20383;-78
2022/08/18 00:45:33;;;;;;;;;;;;;;;24.10;66.09;100333.34;4935255;29;19914;-76
2022/08/18 00:48:17;;;;;;;;;;;;;;;23.87;66.63;100340.34;4935981;29;19914;-77
2022/08/18 00:51:06;;;;;;;;;;;;;;;23.87;66.73;100337.56;4914476;29;20292;-78
2022/08/18 00:54:00;;;;;;;;;;;;;;;23.89;66.88;100342.72;4919498;29;20455;-79
2022/08/18 00:56:47;;;;;;;;;;;;;;;23.94;66.37;100330.38;4929307;29;19914;-78
2022/08/18 00:59:46;;;;;;;;;;;;;;;23.94;66.58;100333.13;4916314;29;19914;-78
2022/08/18 01:02:34;;;;;;;;;;;;;;;23.93;66.37;100337.13;4935800;29;19919;-77
2022/08/18 01:05:18;;;;;;;;;;;;;;;23.88;66.62;100347.50;4945848;29;20383;-77
2022/08/18 01:08:03;;;;;;;;;;;;;;;23.83;66.99;100341.59;4945732;29;19918;-79
2022/08/18 01:10:48;;;;;;;;;;;;;;;23.95;66.87;100345.84;4910094;29;19915;-78
2022/08/18 01:13:34;;;;;;;;;;;;;;;24.22;66.00;100361.41;4919755;29;19919;-79
2022/08/18 01:22:28;;;;;;;;;;;;;;;24.54;64.01;100379.63;4918162;29;19919;-78
2022/08/18 01:28:18;;;;;;;;;;;;;;;24.32;65.03;100381.94;4923248;29;19915;-77
2022/08/18 01:31:03;;;;;;;;;;;;;;;24.50;64.78;100371.34;4946361;29;19919;-77
2022/08/18 01:33:47;;;;;;;;;;;;;;;24.72;63.46;100366.28;4926776;29;19914;-75
2022/08/18 01:36:33;;;;;;;;;;;;;;;24.65;63.59;100366.38;4939212;29;20384;-77
2022/08/18 01:39:18;;;;;;;;;;;;;;;24.54;63.35;100360.97;4926512;29;20379;-77
2022/08/18 01:42:03;;;;;;;;;;;;;;;24.43;63.79;100348.44;4921241;29;19919;-77
2022/08/18 01:44:49;;;;;;;;;;;;;;;24.55;64.38;100334.72;4925346;29;19915;-76
2022/08/18 01:47:35;;;;;;;;;;;;;;;24.59;63.00;100326.34;4934852;29;19914;-77
2022/08/18 01:50:20;;;;;;;;;;;;;;;24.61;63.86;100321.16;4918817;29;19914;-78
2022/08/18 01:53:06;;;;;;;;;;;;;;;24.72;62.64;100330.13;4925859;29;19922;-78
2022/08/18 01:55:50;;;;;;;;;;;;;;;24.80;62.72;100342.69;4923126;29;19915;-77
2022/08/18 01:58:35;;;;;;;;;;;;;;;24.75;63.47;100354.31;4921114;29;19933;-76
2022/08/18 02:01:20;;;;;;;;;;;;;;;25.01;62.39;100363.88;4935078;29;19915;-78
2022/08/18 02:04:06;;;;;;;;;;;;;;;25.15;61.59;100369.19;4934807;29;20376;-78
2022/08/18 02:06:51;;;;;;;;;;;;;;;25.23;61.43;100376.22;4935055;29;20299;-75
2022/08/18 02:09:36;;;;;;;;;;;;;;;25.25;61.38;100378.56;4926660;29;19915;-78
2022/08/18 02:12:21;;;;;;;;;;;;;;;25.37;60.99;100394.69;4934177;29;19914;-78
2022/08/18 02:15:06;;;;;;;;;;;;;;;25.48;60.50;100404.44;4937625;29;19915;-78
2022/08/18 02:17:51;;;;;;;;;;;;;;;25.44;60.72;100417.66;4944747;29;19914;-76
2022/08/18 02:20:35;;;;;;;;;;;;;;;25.54;60.51;100432.59;4927764;29;19914;-77
2022/08/18 02:23:20;;;;;;;;;;;;;;;25.68;60.10;100439.94;4922210;29;19919;-78
2022/08/18 02:26:06;;;;;;;;;;;;;;;25.67;60.15;100443.94;4925848;29;19915;-79
2022/08/18 02:28:51;;;;;;;;;;;;;;;25.49;61.33;100447.78;4923841;29;19915;-78
2022/08/18 02:31:35;;;;;;;;;;;;;;;25.46;61.22;100445.03;4920648;29;19915;-78
2022/08/18 02:34:20;;;;;;;;;;;;;;;25.45;61.12;100424.75;4920374;29;19914;-77
2022/08/18 02:37:04;;;;;;;;;;;;;;;25.61;60.57;100415.78;4924347;29;19914;-77
2022/08/18 02:39:49;;;;;;;;;;;;;;;25.67;61.22;100441.13;4933258;29;19915;-78
2022/08/18 02:42:33;;;;;;;;;;;;;;;25.70;62.47;100496.03;4915627;29;19923;-76
2022/08/18 02:45:17;;;;;;;;;;;;;;;24.98;67.71;100570.63;4915519;29;19915;-77
2022/08/18 02:48:03;;;;;;;;;;;;;;;24.18;71.40;100616.31;4904197;29;19915;-78
2022/08/18 05:26:45;;;;;;;1.88;1.05;;;;;;;23.67;67.13;100264.41;4935416;29;20156;-77
2022/08/18 05:29:36;;;;;;;3.35;1.50;;;;;;;23.69;67.57;100273.13;4921342;29;20047;-76
2022/08/18 05:32:20;;;;;;;1.58;0.80;;;;;;;23.64;67.60;100281.91;4924524;29;20512;-76
2022/08/18 05:35:16;;;;;;;6.28;1.33;;;;;;;23.71;67.85;100290.19;4937010;29;20063;-79
2022/08/18 05:38:19;;;;;;;3.47;1.13;;;;;;;24.01;67.16;100291.41;4925561;29;20039;-78
2022/08/18 05:41:09;;;;;;;1.85;0.75;;;;;;;24.08;66.52;100286.53;4938305;29;20059;-76
2022/08/18 05:43:56;;;;;;;2.58;0.95;;;;;;;24.21;66.39;100298.69;4938168;29;20050;-79
2022/08/18 05:46:49;;;;;;;3.10;0.90;;;;;;;24.37;65.94;100309.19;4938756;29;20051;-77
2022/08/18 05:49:35;;;;;;;2.10;0.80;;;;;;;24.53;65.82;100312.13;4914538;29;20047;-77
2022/08/18 05:52:32;;;;;;;3.35;0.93;;;;;;;24.72;65.16;100330.13;4926257;29;20051;-77
2022/08/18 05:58:37;;;;;;;5.68;1.08;;;;;;;24.92;64.14;100347.72;4919215;29;20515;-79
2022/08/18 06:01:28;;;;;;;4.63;2.22;;;;;;;24.98;63.90;100357.16;4927150;29;20071;-78
2022/08/18 06:04:21;;;;;;;2.53;1.10;;;;;;;25.03;63.97;100375.38;4923531;29;20079;-78
2022/08/18 06:07:09;;;;;;;2.88;1.02;;;;;;;25.01;64.31;100358.31;4931845;29;20070;-77
2022/08/18 06:09:54;;;;;;;2.95;1.05;;;;;;;25.01;64.20;100359.09;4928570;29;20047;-78
2022/08/18 06:12:43;;;;;;;4.10;1.73;;;;;;;25.04;64.53;100352.66;4939292;29;20060;-76
2022/08/18 06:15:38;;;;;;;3.55;1.20;;;;;;;25.12;64.63;100361.72;4933652;29;20530;-79
2022/08/18 06:18:39;;;;;;;2.33;1.27;;;;;;;25.15;64.63;100363.63;4932789;29;20436;-77
2022/08/18 06:21:49;;;;;;;4.18;1.35;;;;;;;25.19;64.18;100375.50;4918472;29;20051;-77
2022/08/18 06:24:44;;;;;;;3.35;1.05;;;;;;;25.21;64.11;100381.44;4917135;29;20059;-77
2022/08/18 06:27:43;;;;;;;3.67;1.15;;;;;;;25.26;63.90;100389.28;4946373;29;20042;-76
2022/08/18 06:30:40;;;;;;;8.50;1.83;;;;;;;25.20;64.42;100393.75;4944618;29;20046;-78
2022/08/18 06:33:41;;;;;;;2.78;1.00;;;;;;;25.09;63.97;100398.75;4953823;29;20527;-78
2022/08/18 06:36:48;;;;;;;3.85;1.38;;;;;;;25.16;63.95;100398.59;4911481;29;20055;-80
2022/08/18 06:39:47;;;;;;;3.72;1.85;;;;;;;25.20;63.40;100385.41;4944849;29;20059;-78
2022/08/18 06:42:32;;;;;;;2.50;1.02;;;;;;;25.13;62.87;100372.44;4924201;29;20055;-81
2022/08/18 06:45:18;;;;;;;;;;;;;;;25.22;62.75;100383.00;4927701;29;20055;-81
2022/08/18 06:48:10;;;;;;;3.30;0.90;;;;;;;25.27;62.67;100390.09;4928079;29;19915;-83
2022/08/18 06:50:59;;;;;;;3.00;1.10;;;;;;;25.23;62.98;100381.81;4925272;29;20055;-82
2022/08/18 06:54:08;;;;;;;3.97;1.50;;;;;;;25.00;63.63;100382.56;4916143;29;20051;-82
2022/08/18 06:56:54;;;;;;;13.40;2.42;;;;;;;25.07;63.47;100388.03;4920016;29;20047;-81
2022/08/18 06:59:39;;;;;;;8.18;1.75;;;;;;;25.10;62.35;100431.69;4930705;29;20055;-81
2022/08/18 07:02:44;;;;;;;7.35;1.58;;;;;;;25.14;62.79;100471.38;4930432;29;20067;-83
2022/08/18 07:05:32;;;;;;;12.93;1.90;;;;;;;25.20;63.07;100470.91;4926959;29;20047;-81
2022/08/18 07:08:29;;;;;;;14.27;2.13;;;;;;;25.13;63.53;100374.41;4927267;29;20047;-82
2022/08/18 07:11:20;;;;;;;39.17;3.50;;;;;;;25.06;64.08;100369.75;4932961;29;20051;-82
2022/08/18 07:14:21;;;;;;;38.58;5.07;;;;;;;25.22;64.23;100405.28;4936567;29;20055;-79
2022/08/18 07:17:11;;;;;;;7.47;3.13;;;;;;;25.19;64.48;100650.28;4938941;29;20044;-79
2022/08/18 07:20:05;;;;;;;8.98;3.17;;;;;;;24.96;65.44;100695.44;4936894;29;20059;-81
2022/08/18 07:34:57;;;;;;;57.05;8.05;;;;;;;24.64;67.36;100457.34;4937114;29;20043;-82
2022/08/18 07:37:55;;;;;;;28.30;7.35;;;;;;;24.57;67.28;100439.97;4927994;29;20043;-82
2022/08/18 07:40:54;;;;;;;17.70;4.55;;;;;;;24.55;67.39;100454.28;4913534;29;20409;-82
2022/08/18 07:44:08;;;;;;;21.17;3.63;;;;;;;24.57;67.15;100451.91;4937226;29;20039;-81
2022/08/18 07:46:59;;;;;;;11.02;3.08;;;;;;;24.64;66.91;100371.16;4896238;29;20048;-80
2022/08/18 07:49:46;;;;;;;12.27;2.63;;;;;;;24.55;67.43;100315.28;4900015;29;20072;-80
2022/08/18 07:52:41;;;;;;;6.88;3.85;;;;;;;24.46;67.37;100292.78;4908801;29;20045;-80
2022/08/18 07:55:35;;;;;;;11.02;3.15;;;;;;;24.42;67.49;100263.47;4913317;29;20055;-80
2022/08/18 07:58:33;;;;;;;5.70;2.28;;;;;;;24.42;67.55;100224.53;4917349;29;20040;-80
2022/08/18 08:01:34;;;;;;;4.93;2.60;;;;;;;24.38;67.93;100209.91;4928383;29;20448;-80
2022/08/18 08:04:39;;;;;;;7.57;3.20;;;;;;;24.46;67.69;100239.16;4927645;29;20051;-80
2022/08/18 08:07:36;;;;;;;6.38;2.85;;;;;;;24.43;67.39;100240.78;4927760;29;20055;-80
2022/08/18 08:10:50;;;;;;;6.95;2.65;;;;;;;24.44;66.99;100217.34;4919090;29;20051;-80
2022/08/18 08:14:10;;;;;;;11.73;3.50;;;;;;;24.47;66.99;100171.25;4929565;29;20059;-80
2022/08/18 08:17:16;;;;;;;5.25;2.53;;;;;;;24.54;67.27;100143.31;4917296;29;20048;-80
2022/08/18 08:20:24;;;;;;;7.45;2.17;;;;;;;24.58;66.96;100172.63;4927476;29;20051;-80
2022/08/18 08:23:26;;;;;;;8.07;3.08;;;;;;;24.57;66.81;100173.06;4916483;29;20047;-81
2022/08/18 08:26:40;;;;;;;14.68;2.17;;;;;;;24.68;66.05;100152.22;4928255;29;20055;-81
2022/08/18 08:29:53;;;;;;;4.60;1.83;;;;;;;24.75;65.98;100167.16;4942913;29;20051;-80
2022/08/18 08:32:50;;;;;;;5.93;2.03;;;;;;;24.68;64.82;100185.56;4915923;29;20519;-80
2022/08/18 08:35:44;;;;;;;1.75;0.82;;;;;;;24.68;65.12;100187.56;4930927;29;20104;-81
2022/08/18 08:38:42;;;;;;;3.10;1.30;;;;;;;24.61;64.83;100177.34;4936615;29;20551;-80
2022/08/18 08:41:34;;;;;;;4.00;1.17;;;;;;;24.57;65.29;100175.84;4936409;29;20051;-80
2022/08/18 08:44:31;;;;;;;13.43;2.63;;;;;;;24.59;64.69;100181.75;4943197;29;20063;-80
2022/08/18 08:47:23;;;;;;;3.78;0.88;;;;;;;24.57;63.73;100182.19;4931723;29;20043;-80
2022/08/18 08:50:25;;;;;;;4.47;0.90;;;;;;;24.57;64.19;100187.75;4940044;29;20519;-80
2022/08/18 08:53:30;;;;;;;2.67;0.93;;;;;;;24.59;64.72;100185.31;4914774;29;20047;-80
2022/08/18 08:56:18;;;;;;;5.80;0.80;;;;;;;24.69;65.35;100164.88;4900090;29;20047;-80
2022/08/18 08:59:08;;;;;;;2.55;0.68;;;;;;;24.74;65.65;100138.56;4928079;29;20059;-80
2022/08/18 09:02:07;;;;;;;3.22;1.63;;;;;;;24.74;65.31;100115.56;4905095;29;20063;-80
2022/08/18 09:05:07;;;;;;;2.63;0.60;;;;;;;24.77;64.81;100101.59;4905156;29;20048;-81
2022/08/18 09:08:34;;;;;;;3.83;0.70;;;;;;;24.80;64.58;100077.69;4893118;29;20064;-80
2022/08/18 09:11:26;;;;;;;3.53;1.05;;;;;;;24.75;64.26;100075.41;4905175;29;20072;-80
2022/08/18 09:14:30;;;;;;;1.58;0.60;;;;;;;24.70;62.76;100085.81;4904883;29;20052;-80
2022/08/18 09:17:37;;;;;;;2.05;0.57;;;;;;;24.56;62.16;100102.75;4916060;29;20051;-81
2022/08/18 09:20:46;;;;;;;8.38;0.88;;;;;;;24.51;61.94;100117.16;4921786;29;20121;-80
2022/08/18 09:23:45;;;;;;;10.77;0.60;;;;;;;24.26;61.41;100133.47;4913687;29;20047;-80
2022/08/18 09:26:34;;;;;;;5.95;0.50;;;;;;;24.15;62.53;100157.84;4922625;29;20098;-81
2022/08/18 09:29:37;;;;;;;0.80;0.28;;;;;;;23.99;63.15;100154.91;4897904;29;20048;-79
2022/08/18 09:32:21;;;;;;;2.72;0.30;;;;;;;23.95;63.50;100132.75;4926325;29;20052;-81
2022/08/18 09:35:41;;;;;;;2.67;0.22;;;;;;;23.96;64.61;100130.75;4931686;29;20051;-82
2022/08/18 09:41:44;;;;;;;0.73;0.30;;;;;;;23.72;64.73;100138.25;4923755;29;20047;-79
2022/08/18 09:44:45;;;;;;;3.38;0.57;;;;;;;23.65;68.31;100143.91;4941254;29;20052;-79
2022/08/18 09:47:29;;;;;;;3.58;0.63;;;;;;;23.19;72.20;100153.56;4919205;29;20039;-79
2022/08/18 09:50:15;;;;;;;8.07;0.65;;;;;;;23.12;72.39;100183.38;4921632;29;20055;-87
2022/08/18 09:53:32;;;;;;;16.85;1.40;;;;;;;23.17;74.19;100167.06;4916948;29;20055;-86
2022/08/18 09:56:48;;;;;;;3.33;1.10;;;;;;;23.08;73.39;100141.00;4916060;29;20059;-81
2022/08/18 09:59:33;;;;;;;14.90;1.23;;;;;;;23.25;72.61;100160.25;4912246;29;20043;-82
2022/08/18 10:10:45;;;;;;;8.05;1.65;;;;;;;23.12;75.25;100217.44;4923537;29;20040;-80
2022/08/18 10:14:17;;;;;;;3.63;0.60;;;;;;;23.36;72.83;100237.81;4952799;23;20054;-59
2022/08/18 10:17:10;;;;;;;5.43;0.70;;;;;;;23.48;73.10;100364.19;4934347;29;20065;-59
2022/08/18 10:57:30;;;;;;;8.27;1.40;;;;;;;22.45;100.00;100204.94;4909954;29;20041;-81
2022/08/18 11:00:19;;;;;;;4.20;1.05;;;;;;;22.34;100.00;100215.34;4902352;29;20044;-80
2022/08/18 11:03:18;;;;;;;3.47;1.13;;;;;;;22.31;100.00;100218.91;4908479;29;20052;-80
2022/08/18 11:06:13;;;;;;;5.97;0.95;;;;;;;22.41;100.00;100228.34;4901609;29;20040;-87
2022/08/18 11:09:00;;;;;;;300.05;50.63;;;;;;;22.43;100.00;100215.69;4917195;29;20434;-82
2022/08/18 11:11:51;;;;;;;570.05;116.70;;;;;;;22.51;100.00;100227.47;4920848;29;20051;-83
2022/08/18 11:14:45;;;;;;;339.70;66.55;;;;;;;22.55;100.00;100267.06;4925611;29;20032;-82
2022/08/18 11:17:30;;;;;;;371.90;70.57;;;;;;;22.56;100.00;100269.41;4917559;29;20044;-82
2022/08/18 11:29:12;;;;;;;137.00;25.15;;;;;;;22.50;100.00;100120.63;4915625;29;20040;-83
2022/08/18 11:32:03;;;;;;;42.47;11.27;;;;;;;22.46;100.00;100069.97;4903329;29;20052;-83
2022/08/18 11:34:59;;;;;;;19.77;5.20;;;;;;;22.45;100.00;99983.28;4901000;29;20049;-83
2022/08/18 11:37:48;;;;;;;16.77;4.20;;;;;;;22.43;100.00;99863.78;4885988;29;20056;-82
2022/08/18 11:40:39;;;;;;;15.73;3.80;;;;;;;22.41;100.00;99890.31;4919882;29;20040;-83
2022/08/18 11:43:27;;;;;;;15.82;3.72;;;;;;;22.35;100.00;99969.56;4928356;29;20058;-82
2022/08/18 11:46:24;;;;;;;33.30;7.63;;;;;;;22.33;100.00;100019.06;4917605;29;20036;-83
2022/08/18 11:49:24;;;;;;;30.92;7.70;;;;;;;22.29;100.00;100032.94;4905405;29;20040;-83
2022/08/18 11:52:25;;;;;;;32.97;9.82;;;;;;;22.36;100.00;100040.38;4916934;29;20505;-83
2022/08/18 11:55:19;;;;;;;24.75;6.22;;;;;;;22.38;100.00;100035.22;4901866;29;20040;-82
2022/08/18 11:58:05;;;;;;;19.58;5.03;;;;;;;22.40;100.00;100032.84;4913200;29;20039;-81
2022/08/18 12:00:51;;;;;;;21.00;4.32;;;;;;;22.45;100.00;100040.72;4919504;29;20048;-81
2022/08/18 12:03:44;;;;;;;4.28;1.23;;;;;;;22.52;100.00;100066.34;4903428;29;20049;-81
2022/08/18 12:06:30;;;;;;;3.45;0.95;;;;;;;23.02;100.00;100091.53;4888272;29;20122;-76
2022/08/18 12:09:26;;;;;;;2.47;0.80;;;;;;;22.88;100.00;100108.34;4917286;29;20064;-79
2022/08/18 12:12:21;;;;;;;1.25;0.70;;;;;;;23.29;100.00;100121.34;4911861;29;20595;-78
2022/08/18 12:15:12;;;;;;;3.25;0.60;;;;;;;23.69;100.00;100120.44;4915198;29;20040;-77
2022/08/18 12:17:57;;;;;;;1.27;0.55;;;;;;;24.04;100.00;100138.53;4898372;29;20055;-78
2022/08/18 12:20:41;;;;;;;;;;;;;;;25.82;100.00;100152.72;4887646;29;20430;-79
2022/08/18 12:23:26;;;;;;;3.53;1.03;;;;;;;26.83;81.85;100153.41;4900799;29;20396;-79
2022/08/18 12:26:12;;;;;;;2.60;0.88;;;;;;;28.09;79.42;100153.72;4889388;29;20297;-78
2022/08/18 12:28:56;;;;;;;3.53;1.42;;;;;;;29.80;58.39;100158.91;4886646;29;20055;-78
2022/08/18 12:31:42;;;;;;;4.95;1.17;;;;;;;28.71;58.41;100175.69;4885535;29;20430;-78
2022/08/18 12:34:26;;;;;;;2.17;0.80;;;;;;;28.21;60.00;100194.13;4898645;29;20055;-79
2022/08/18 12:37:15;;;;;;;3.67;1.20;;;;;;;27.39;61.63;100209.72;4890591;29;20537;-81
2022/08/18 12:40:00;;;;;;;6.03;1.90;;;;;;;25.41;70.40;100218.00;4907724;29;20055;-79
2022/08/18 12:42:48;;;;;;;4.20;2.20;;;;;;;24.90;73.33;100213.03;4908311;29;20531;-78
2022/08/18 12:45:32;;;;;;;6.93;2.92;;;;;;;24.24;73.92;100208.91;4909324;29;20114;-78
2022/08/18 12:48:18;;;;;;;7.15;2.05;;;;;;;24.03;73.92;100223.09;4915007;29;20126;-78
2022/08/18 12:51:04;;;;;;;9.25;2.22;;;;;;;23.74;74.67;100224.69;4905650;29;20063;-78
2022/08/18 12:53:49;;;;;;;6.72;1.98;;;;;;;23.75;74.90;100246.50;4895213;29;20442;-79
2022/08/18 12:56:34;;;;;;;2.90;1.73;;;;;;;23.51;72.11;100244.03;4909546;29;20054;-79
2022/08/18 12:59:19;;;;;;;5.10;1.98;;;;;;;23.10;75.26;100263.44;4912814;29;20051;-78
2022/08/18 13:02:04;;;;;;;5.38;2.03;;;;;;;22.95;76.40;100263.59;4917176;29;20126;-79
2022/08/18 13:04:48;;;;;;;3.30;2.05;;;;;;;22.62;77.88;100267.00;4901424;29;20051;-79
2022/08/18 13:07:33;;;;;;;7.57;2.90;;;;;;;22.87;78.69;100281.47;4914092;29;20060;-79
2022/08/18 13:10:18;;;;;;;6.78;2.40;;;;;;;22.83;78.99;100291.81;4902272;29;20075;-79
2022/08/18 13:13:04;;;;;;;5.93;1.92;;;;;;;22.82;78.29;100286.66;4897462;29;20048;-79
2022/08/18 13:15:49;;;;;;;3.20;1.92;;;;;;;23.01;78.79;100299.97;4918202;29;20416;-79
2022/08/18 13:18:38;;;;;;;7.40;1.90;;;;;;;23.74;73.68;100308.78;4900662;29;20408;-79
2022/08/18 13:21:23;;;;;;;6.22;1.65;;;;;;;24.49;70.67;100297.47;4908704;29;20056;-80
2022/08/18 13:24:09;;;;;;;4.97;1.60;;;;;;;25.63;67.17;100301.16;4886084;29;20072;-80
2022/08/18 13:26:54;;;;;;;2.40;1.10;;;;;;;25.69;62.68;100299.47;4888777;29;20056;-80
2022/08/18 13:29:40;;;;;;;2.78;0.88;;;;;;;25.93;62.07;100310.09;4914097;29;20448;-81
2022/08/18 13:32:25;;;;;;;7.65;1.40;;;;;;;26.43;60.75;100308.25;4913724;29;20063;-80
2022/08/18 13:35:11;;;;;;;3.47;1.55;;;;;;;27.02;59.84;100294.88;4886736;29;20533;-79
2022/08/18 13:37:55;;;;;;;4.82;1.13;;;;;;;26.63;58.17;100311.75;4907440;29;20050;-80
2022/08/18 13:40:41;;;;;;;3.33;1.38;;;;;;;26.81;58.38;100306.56;4896539;29;20051;-79
2022/08/18 13:43:32;;;;;;;3.80;1.02;;;;;;;26.44;60.41;100305.03;4918520;29;20421;-78
2022/08/18 13:46:18;;;;;;;3.40;1.17;;;;;;;26.10;60.45;100302.59;4910853;29;20051;-79
2022/08/18 13:49:03;;;;;;;6.15;1.20;;;;;;;25.21;61.50;100291.56;4911084;29;20075;-79
2022/08/18 13:51:51;;;;;;;3.20;1.63;;;;;;;25.52;61.09;100296.56;4908074;29;20051;-79
2022/08/18 13:54:36;;;;;;;6.90;1.20;;;;;;;25.28;60.84;100297.03;4887983;29;20056;-79
2022/08/18 13:57:21;;;;;;;3.88;0.80;;;;;;;25.09;59.43;100299.31;4898931;29;20051;-79
2022/08/18 14:00:11;;;;;;;4.30;1.08;;;;;;;25.19;61.04;100297.59;4902591;29;20051;-79
2022/08/18 14:02:59;;;;;;;2.72;0.90;;;;;;;25.01;61.07;100291.53;4906258;29;20043;-80
2022/08/18 14:05:44;;;;;;;5.85;1.48;;;;;;;25.01;62.08;100283.19;4915614;29;20056;-80
2022/08/18 14:08:30;;;;;;;1.83;1.15;;;;;;;24.92;62.17;100285.72;4888242;29;20520;-80
2022/08/18 14:11:16;;;;;;;5.88;1.48;;;;;;;24.58;62.84;100269.94;4893732;29;20528;-80
2022/08/18 14:14:01;;;;;;;4.95;1.75;;;;;;;24.77;62.60;100267.66;4906291;29;20401;-81
2022/08/18 14:16:46;;;;;;;5.70;1.48;;;;;;;24.64;63.82;100264.69;4908064;29;20052;-80
2022/08/18 14:28:41;;;;;;;7.32;1.10;;;;;;;24.90;63.27;100249.19;4907521;29;20043;-79
2022/08/18 14:31:26;;;;;;;6.68;1.83;;;;;;;24.85;62.63;100252.41;4905238;29;20071;-79
2022/08/18 14:34:11;;;;;;;6.78;1.17;;;;;;;24.92;63.71;100252.34;4906642;29;20047;-78
2022/08/18 14:36:56;;;;;;;7.13;1.52;;;;;;;24.91;62.37;100262.69;4911025;29;20043;-77
2022/08/18 14:39:40;;;;;;;2.38;1.33;;;;;;;24.82;61.69;100275.53;4902680;29;20052;-78
2022/08/18 14:42:26;;;;;;;3.60;0.82;;;;;;;24.81;62.75;100260.03;4901741;29;20056;-77
2022/08/18 14:45:13;;;;;;;2.25;0.75;;;;;;;24.86;61.92;100265.13;4900912;29;20047;-78
2022/08/18 14:47:58;;;;;;;8.35;1.95;;;;;;;24.77;62.99;100254.56;4901464;29;20055;-78
2022/08/18 14:50:47;;;;;;;2.05;0.70;;;;;;;24.74;63.30;100258.16;4903113;29;20102;-78
2022/08/18 14:53:35;;;;;;;5.63;1.90;;;;;;;24.67;62.13;100264.66;4905866;29;20056;-78
2022/08/18 14:56:20;;;;;;;2.95;0.70;;;;;;;24.66;62.28;100278.97;4906155;29;20520;-78
2022/08/18 14:59:06;;;;;;;4.90;1.00;;;;;;;24.66;62.83;100267.84;4904337;29;20541;-78
2022/08/18 15:01:51;;;;;;;3.60;0.70;;;;;;;24.68;62.49;100276.56;4894410;29;20047;-79
2022/08/18 15:04:37;;;;;;;3.15;0.85;;;;;;;24.76;62.59;100278.00;4905429;29;20047;-78
2022/08/18 15:07:23;;;;;;;1.75;0.75;;;;;;;24.77;61.65;100276.81;4904530;29;20059;-78
2022/08/18 15:10:10;;;;;;;6.80;0.77;;;;;;;24.78;61.90;100274.81;4907010;29;20064;-78
2022/08/18 15:13:02;;;;;;;3.22;0.68;;;;;;;24.78;61.59;100285.94;4905964;29;20055;-79
2022/08/18 15:15:46;;;;;;;4.10;1.02;;;;;;;24.64;61.89;100287.72;4914871;29;20545;-79
2022/08/18 15:18:32;;;;;;;5.35;1.15;;;;;;;24.61;62.57;100285.00;4889246;29;20426;-79
2022/08/18 15:27:33;;;;;;;12.05;1.08;;;;;;;24.57;61.55;100293.41;4918749;29;20066;-78
2022/08/18 15:30:19;;;;;;;2.10;0.50;;;;;;;24.57;60.81;100298.19;4910939;29;20426;-78
2022/08/18 15:33:06;;;;;;;1.85;0.60;;;;;;;24.47;60.87;100286.00;4904661;29;20171;-78
2022/08/18 15:35:51;;;;;;;3.25;0.70;;;;;;;24.45;60.82;100285.63;4912726;29;20101;-78
2022/08/18 15:38:37;;;;;;;4.70;0.40;;;;;;;24.45;60.30;100277.28;4900934;29;20048;-79
2022/08/18 15:41:30;;;;;;;7.22;1.13;;;;;;;24.51;60.30;100277.63;4905790;29;20063;-79
2022/08/18 15:44:18;;;;;;;5.38;1.38;;;;;;;24.45;59.97;100274.50;4909408;29;20047;-79
2022/08/18 15:47:03;;;;;;;3.22;0.63;;;;;;;24.46;60.30;100272.53;4913351;29;20050;-79
2022/08/18 15:49:48;;;;;;;2.42;0.60;;;;;;;24.46;60.95;100262.19;4909345;29;20051;-79
2022/08/18 15:52:33;;;;;;;3.85;0.65;;;;;;;24.48;60.46;100259.75;4905659;29;20425;-79
2022/08/18 15:55:21;;;;;;;3.28;0.80;;;;;;;24.53;60.05;100261.31;4914530;29;20406;-79
2022/08/18 15:58:07;;;;;;;2.97;0.77;;;;;;;24.54;60.07;100260.88;4906771;29;20134;-79
2022/08/18 16:00:52;;;;;;;6.25;0.98;;;;;;;24.53;60.61;100264.84;4905916;29;20071;-80
2022/08/18 16:03:37;;;;;;;3.88;1.10;;;;;;;24.59;60.66;100265.16;4914053;29;20062;-79
2022/08/18 16:06:25;;;;;;;6.05;0.55;;;;;;;24.62;60.71;100256.78;4905311;29;20055;-78
2022/08/18 16:09:10;;;;;;;2.05;0.55;;;;;;;24.64;59.99;100264.69;4899018;29;20056;-79
2022/08/18 16:11:55;;;;;;;3.30;0.50;;;;;;;24.65;59.78;100250.38;4901153;29;20051;-79
2022/08/18 16:14:40;;;;;;;2.70;0.50;;;;;;;24.71;60.20;100250.66;4912287;29;20068;-79
2022/08/18 16:17:25;;;;;;;7.32;0.73;;;;;;;24.71;58.32;100259.81;4917559;29;20416;-77
2022/08/18 16:20:10;;;;;;;;;;;;;;;24.76;58.44;100274.44;4908926;29;20066;-77
2022/08/18 16:22:56;;;;;;;5.55;0.70;;;;;;;24.66;57.64;100260.28;4896378;29;19915;-78
2022/08/18 16:25:42;;;;;;;5.13;0.80;;;;;;;24.69;57.98;100262.22;4914403;29;20051;-77
2022/08/18 16:28:26;;;;;;;3.80;1.10;;;;;;;24.72;58.73;100277.28;4956235;23;20043;-60
2022/08/18 16:31:18;;;;;;;2.10;1.15;;;;;;;24.74;59.05;100277.63;4930397;29;20054;-60
2022/08/18 16:34:04;;;;;;;5.97;0.88;;;;;;;24.73;58.72;100278.06;4928229;29;20055;-61
2022/08/18 16:36:49;;;;;;;4.00;0.88;;;;;;;24.75;58.61;100272.84;4923147;29;20400;-61
2022/08/18 16:39:35;;;;;;;4.45;1.75;;;;;;;24.76;57.96;100257.75;4926105;29;20043;-61
2022/08/18 16:42:20;;;;;;;3.30;1.13;;;;;;;24.74;58.00;100257.41;4923451;29;20050;-61
2022/08/18 16:45:07;;;;;;;3.35;0.60;;;;;;;24.73;58.02;100255.81;4918319;29;20554;-60
2022/08/18 16:47:53;;;;;;;5.05;0.90;;;;;;;24.65;58.74;100250.38;4933196;28;20047;-60
2022/08/18 16:50:41;;;;;;;6.65;0.88;;;;;;;24.65;58.12;100239.25;4936907;29;20051;-60
2022/08/18 16:53:26;;;;;;;1.80;0.43;;;;;;;24.70;57.43;100219.28;4927560;29;20062;-61
2022/08/18 16:56:16;;;;;;;3.53;0.63;;;;;;;24.74;56.59;100219.22;4928258;29;20538;-60
2022/08/18 17:05:10;;;;;;;6.88;0.70;;;;;;;24.74;56.39;100162.84;4919652;29;20507;-60
2022/08/18 17:07:55;;;;;;;2.10;0.40;;;;;;;24.69;56.23;100173.22;4923061;29;20058;-60
2022/08/18 17:10:41;;;;;;;7.30;0.60;;;;;;;24.69;56.20;100164.09;4927736;29;20050;-59
2022/08/18 17:13:25;;;;;;;4.82;0.68;;;;;;;24.66;56.28;100174.09;4916583;29;20634;-61
2022/08/18 17:16:11;;;;;;;6.03;0.70;;;;;;;24.59;58.01;100179.75;4926283;28;20043;-59
2022/08/18 17:18:57;;;;;;;4.40;0.73;;;;;;;24.50;58.41;100182.28;4932680;29;20051;-59
2022/08/18 17:21:43;;;;;;;7.35;1.00;;;;;;;24.49;58.59;100177.94;4926633;29;20051;-61
2022/08/18 17:24:28;;;;;;;5.75;1.20;;;;;;;24.45;59.06;100168.88;4922199;29;20042;-59
2022/08/18 17:27:26;;;;;;;3.45;0.77;;;;;;;24.48;59.54;100172.81;4920189;28;20063;-59
2022/08/18 17:30:15;;;;;;;4.93;0.82;;;;;;;24.44;59.96;100172.84;4925753;29;20043;-59
2022/08/18 17:33:11;;;;;;;5.75;0.75;;;;;;;24.45;59.35;100156.97;4919084;29;20059;-61
2022/08/18 17:36:02;;;;;;;3.45;0.60;;;;;;;24.42;59.07;100147.50;4913764;29;20051;-61
2022/08/18 17:38:57;;;;;;;4.90;1.10;;;;;;;24.43;59.15;100149.03;4929663;29;20047;-59
2022/08/18 17:44:46;;;;;;;6.93;0.70;;;;;;;24.46;58.98;100136.31;4932003;29;20047;-60
2022/08/18 17:47:36;;;;;;;2.75;0.73;;;;;;;24.49;58.89;100147.34;4933632;29;20058;-61